createdAt,value
2022-10-29T00:02:02.600Z,11.08
2022-10-29T00:04:29.301Z,11.07
2022-10-29T00:06:55.919Z,11.09
2022-10-29T00:09:29.960Z,11.08
2022-10-29T00:11:56.785Z,11.09
2022-10-29T00:14:23.456Z,11.10
2022-10-29T00:16:50.078Z,11.08
2022-10-29T00:19:16.701Z,11.09
2022-10-29T00:21:43.312Z,11.08
2022-10-29T00:24:10.980Z,11.07
2022-10-29T00:26:37.793Z,11.09
2022-10-29T00:29:04.482Z,11.09
2022-10-29T00:31:31.466Z,11.09
2022-10-29T00:33:58.320Z,11.10
2022-10-29T00:36:27.558Z,11.11
2022-10-29T00:38:54.819Z,11.09
2022-10-29T00:41:29.425Z,11.13
2022-10-29T00:44:14.786Z,11.12
2022-10-29T00:46:44.315Z,11.13
2022-10-29T00:49:11.586Z,11.14
2022-10-29T00:51:39.037Z,11.15
2022-10-29T00:54:09.931Z,11.17
2022-10-29T00:56:52.757Z,11.18
2022-10-29T00:59:19.656Z,11.20
2022-10-29T01:01:50.422Z,11.22
2022-10-29T01:04:18.640Z,11.23
2022-10-29T01:06:47.230Z,11.21
2022-10-29T01:09:14.031Z,11.22
2022-10-29T01:12:07.436Z,11.22
2022-10-29T01:15:04.182Z,11.22
2022-10-29T01:17:45.910Z,11.22
2022-10-29T01:20:31.011Z,11.21
2022-10-29T01:23:25.377Z,11.22
2022-10-29T01:26:19.744Z,11.23
2022-10-29T01:29:20.332Z,11.25
2022-10-29T01:32:14.508Z,11.27
2022-10-29T01:34:51.379Z,11.26
2022-10-29T01:37:23.236Z,11.25
2022-10-29T01:39:58.985Z,11.25
2022-10-29T01:42:40.461Z,11.25
2022-10-29T01:45:15.058Z,11.24
2022-10-29T01:47:51.464Z,11.24
2022-10-29T01:50:22.123Z,11.21
2022-10-29T01:52:50.300Z,11.21
2022-10-29T01:55:25.701Z,11.22
2022-10-29T01:57:52.603Z,11.24
2022-10-29T02:00:20.404Z,11.24
2022-10-29T02:03:21.107Z,11.25
2022-10-29T02:06:15.623Z,11.22
2022-10-29T02:08:54.928Z,11.21
2022-10-29T02:11:27.053Z,11.21
2022-10-29T02:14:07.818Z,11.17
2022-10-29T02:16:34.677Z,11.20
2022-10-29T02:19:01.516Z,11.16
2022-10-29T02:21:28.183Z,11.20
2022-10-29T02:23:54.831Z,11.21
2022-10-29T02:26:22.454Z,11.21
2022-10-29T02:28:49.220Z,11.20
2022-10-29T02:31:15.970Z,11.18
2022-10-29T02:33:42.634Z,11.18
2022-10-29T02:36:09.485Z,11.20
2022-10-29T02:38:36.154Z,11.22
2022-10-29T02:41:02.798Z,11.23
2022-10-29T02:43:29.384Z,11.22
2022-10-29T02:46:16.368Z,11.22
2022-10-29T02:48:43.446Z,11.21
2022-10-29T02:51:10.428Z,11.20
2022-10-29T02:53:37.492Z,11.20
2022-10-29T02:56:05.659Z,11.20
2022-10-29T02:58:32.610Z,11.18
2022-10-29T03:00:59.324Z,11.15
2022-10-29T03:03:26.128Z,11.14
2022-10-29T03:05:53.025Z,11.14
2022-10-29T03:08:19.965Z,11.12
2022-10-29T03:10:46.702Z,11.10
2022-10-29T03:13:13.341Z,11.12
2022-10-29T03:15:44.265Z,11.10
2022-10-29T03:18:11.175Z,11.11
2022-10-29T03:20:37.806Z,11.10
2022-10-29T03:23:04.418Z,11.10
2022-10-29T03:25:31.096Z,11.09
2022-10-29T03:27:57.848Z,11.06
2022-10-29T03:30:24.617Z,11.05
2022-10-29T03:32:51.238Z,11.04
2022-10-29T03:35:17.841Z,11.03
2022-10-29T03:37:44.570Z,11.05
2022-10-29T03:40:11.278Z,11.03
2022-10-29T03:42:38.915Z,11.03
2022-10-29T03:45:06.055Z,11.01
2022-10-29T03:47:33.161Z,11.01
2022-10-29T03:49:59.792Z,11.00
2022-10-29T03:52:26.545Z,11.03
2022-10-29T03:54:54.504Z,11.03
2022-10-29T03:57:21.375Z,11.07
2022-10-29T03:59:51.583Z,11.09
2022-10-29T04:02:19.504Z,11.15
2022-10-29T04:04:46.253Z,11.15
2022-10-29T04:07:12.966Z,11.17
2022-10-29T04:09:39.809Z,11.19
2022-10-29T04:12:07.094Z,11.20
2022-10-29T04:14:33.936Z,11.24
2022-10-29T04:17:00.568Z,11.23
2022-10-29T04:19:27.164Z,11.24
2022-10-29T04:32:45.974Z,11.37
2022-10-29T04:35:12.705Z,11.37
2022-10-29T04:37:39.330Z,11.39
2022-10-29T04:40:06.334Z,11.37
2022-10-29T04:42:37.565Z,11.36
2022-10-29T04:45:05.219Z,11.39
2022-10-29T04:47:31.839Z,11.41
2022-10-29T04:49:58.557Z,11.41
2022-10-29T04:52:25.901Z,11.44
2022-10-29T04:54:52.489Z,11.43
2022-10-29T04:57:19.089Z,11.47
2022-10-29T04:59:45.649Z,11.48
2022-10-29T05:02:12.258Z,11.49
2022-10-29T05:04:38.877Z,11.49
2022-10-29T05:07:05.513Z,11.53
2022-10-29T05:09:32.087Z,11.52
2022-10-29T05:11:58.784Z,11.54
2022-10-29T05:14:25.367Z,11.57
2022-10-29T05:16:51.993Z,11.56
2022-10-29T05:19:18.625Z,11.58
2022-10-29T05:21:45.244Z,11.58
2022-10-29T05:24:11.856Z,11.58
2022-10-29T05:26:38.466Z,11.58
2022-10-29T05:29:05.097Z,11.58
2022-10-29T05:31:31.754Z,11.57
2022-10-29T05:33:58.476Z,11.53
2022-10-29T05:36:25.062Z,11.53
2022-10-29T05:38:51.655Z,11.52
2022-10-29T05:41:18.325Z,11.51
2022-10-29T05:43:48.743Z,11.54
2022-10-29T05:46:16.704Z,11.54
2022-10-29T05:48:43.372Z,11.53
2022-10-29T05:51:10.162Z,11.52
2022-10-29T05:53:36.941Z,11.55
2022-10-29T05:56:03.752Z,11.58
2022-10-29T05:58:30.389Z,11.61
2022-10-29T06:00:57.071Z,11.62
2022-10-29T06:03:24.205Z,11.64
2022-10-29T06:05:51.103Z,11.64
2022-10-29T06:08:18.149Z,11.66
2022-10-29T06:10:44.925Z,11.67
2022-10-29T06:13:19.361Z,11.69
2022-10-29T06:15:47.248Z,11.69
2022-10-29T06:18:14.345Z,11.72
2022-10-29T06:20:41.238Z,11.73
2022-10-29T06:23:07.888Z,11.74
2022-10-29T06:25:34.503Z,11.74
2022-10-29T06:28:03.257Z,11.76
2022-10-29T06:30:32.267Z,11.77
2022-10-29T06:32:59.872Z,11.77
2022-10-29T06:35:26.903Z,11.77
2022-10-29T06:37:54.009Z,11.78
2022-10-29T06:40:21.068Z,11.80
2022-10-29T06:42:47.704Z,11.79
2022-10-29T06:45:14.655Z,11.82
2022-10-29T06:47:43.449Z,11.82
2022-10-29T06:50:12.067Z,11.83
2022-10-29T06:52:39.169Z,11.86
2022-10-29T06:55:07.264Z,11.87
2022-10-29T06:57:34.067Z,11.87
2022-10-29T07:00:05.530Z,11.88
2022-10-29T07:02:35.212Z,11.91
2022-10-29T07:05:01.823Z,11.92
2022-10-29T07:07:29.481Z,11.89
2022-10-29T07:09:56.125Z,11.92
2022-10-29T07:12:22.710Z,11.94
2022-10-29T07:14:49.405Z,11.93
2022-10-29T07:17:15.972Z,11.95
2022-10-29T07:19:42.578Z,11.94
2022-10-29T07:22:09.206Z,11.95
2022-10-29T07:24:35.885Z,11.98
2022-10-29T07:27:02.586Z,11.98
2022-10-29T07:29:29.194Z,11.99
2022-10-29T07:31:55.820Z,12.01
2022-10-29T07:34:22.405Z,12.04
2022-10-29T07:36:49.054Z,12.03
2022-10-29T07:39:15.678Z,12.06
2022-10-29T07:41:42.285Z,12.02
2022-10-29T07:44:09.074Z,12.05
2022-10-29T07:46:35.697Z,12.06
2022-10-29T07:49:02.342Z,12.07
2022-10-29T07:51:28.974Z,12.09
2022-10-29T07:53:55.614Z,12.12
2022-10-29T07:56:22.293Z,12.14
2022-10-29T07:58:49.090Z,12.18
2022-10-29T08:01:15.845Z,12.18
2022-10-29T08:03:42.527Z,12.20
2022-10-29T08:06:09.379Z,12.19
2022-10-29T08:08:36.117Z,12.22
2022-10-29T08:11:04.966Z,12.25
2022-10-29T08:13:31.584Z,12.24
2022-10-29T08:15:58.205Z,12.24
2022-10-29T08:18:24.813Z,12.28
2022-10-29T08:20:51.436Z,12.28
2022-10-29T08:23:18.103Z,12.29
2022-10-29T08:25:45.357Z,12.31
2022-10-29T08:28:14.510Z,12.33
2022-10-29T08:30:42.071Z,12.38
2022-10-29T08:33:09.812Z,12.40
2022-10-29T08:35:36.451Z,12.41
2022-10-29T08:38:03.088Z,12.46
2022-10-29T08:40:41.754Z,12.46
2022-10-29T08:43:29.458Z,12.50
2022-10-29T08:45:57.397Z,12.54
2022-10-29T08:49:02.805Z,12.56
2022-10-29T08:51:36.076Z,12.60
2022-10-29T08:54:32.650Z,12.63
2022-10-29T08:56:54.045Z,12.65
2022-10-29T08:59:23.011Z,12.72
2022-10-29T09:01:51.338Z,12.79
2022-10-29T09:04:33.947Z,12.82
2022-10-29T09:07:14.131Z,12.90
2022-10-29T09:09:49.612Z,12.95
2022-10-29T09:12:48.431Z,12.98
2022-10-29T09:15:51.124Z,12.98
2022-10-29T09:18:22.990Z,13.03
2022-10-29T09:21:00.166Z,13.05
2022-10-29T09:24:05.231Z,13.11
2022-10-29T09:26:52.291Z,13.16
2022-10-29T09:29:30.769Z,13.20
2022-10-29T09:32:05.592Z,13.29
2022-10-29T09:34:41.630Z,13.32
2022-10-29T09:37:15.851Z,13.35
2022-10-29T09:39:46.275Z,13.37
2022-10-29T09:42:18.127Z,13.42
2022-10-29T09:44:55.943Z,13.48
2022-10-29T09:47:54.340Z,13.56
2022-10-29T09:50:42.976Z,13.60
2022-10-29T09:53:12.326Z,13.63
2022-10-29T09:55:43.735Z,13.66
2022-10-29T09:58:19.602Z,13.67
2022-10-29T10:00:46.674Z,13.75
2022-10-29T10:03:20.864Z,13.76
2022-10-29T10:06:05.600Z,13.81
2022-10-29T10:08:34.062Z,13.88
2022-10-29T10:11:04.814Z,13.98
2022-10-29T10:13:34.654Z,14.09
2022-10-29T10:16:04.460Z,14.20
2022-10-29T10:18:31.071Z,14.27
2022-10-29T10:21:09.797Z,14.33
2022-10-29T10:23:48.157Z,14.35
2022-10-29T10:26:37.233Z,14.39
2022-10-29T10:29:18.219Z,14.38
2022-10-29T10:31:48.890Z,14.36
2022-10-29T10:34:19.992Z,14.39
2022-10-29T10:37:12.270Z,14.42
2022-10-29T10:39:52.968Z,14.40
2022-10-29T10:42:25.234Z,14.41
2022-10-29T10:45:01.300Z,14.48
2022-10-29T10:47:36.382Z,14.58
2022-10-29T10:50:27.270Z,14.64
2022-10-29T10:52:56.048Z,14.70
2022-10-29T10:55:32.101Z,14.71
2022-10-29T10:58:26.119Z,14.75
2022-10-29T11:01:03.125Z,14.81
2022-10-29T11:03:35.811Z,14.85
2022-10-29T11:06:06.821Z,14.91
2022-10-29T11:09:11.656Z,14.96
2022-10-29T11:12:10.160Z,15.02
2022-10-29T11:14:48.045Z,15.12
2022-10-29T11:17:31.288Z,15.22
2022-10-29T11:20:03.348Z,15.32
2022-10-29T11:22:53.788Z,15.40
2022-10-29T11:25:46.122Z,15.47
2022-10-29T11:28:28.128Z,15.51
2022-10-29T11:31:17.817Z,15.57
2022-10-29T11:34:08.414Z,15.63
2022-10-29T11:36:43.168Z,15.67
2022-10-29T11:39:17.519Z,15.75
2022-10-29T11:41:50.212Z,15.82
2022-10-29T11:44:21.870Z,15.90
2022-10-29T11:47:03.527Z,15.97
2022-10-29T11:49:47.299Z,16.03
2022-10-29T11:52:21.230Z,16.09
2022-10-29T11:54:59.939Z,16.17
2022-10-29T11:57:35.778Z,16.21
2022-10-29T12:00:11.471Z,16.12
2022-10-29T12:02:49.458Z,16.09
2022-10-29T12:05:28.498Z,16.04
2022-10-29T12:08:21.517Z,16.02
2022-10-29T12:10:54.629Z,16.05
2022-10-29T12:13:27.294Z,16.07
2022-10-29T12:16:32.512Z,16.07
2022-10-29T12:19:29.605Z,16.16
2022-10-29T12:22:09.307Z,16.21
2022-10-29T12:24:46.762Z,16.30
2022-10-29T12:27:22.979Z,16.38
2022-10-29T12:30:03.862Z,16.43
2022-10-29T12:32:48.826Z,16.52
2022-10-29T12:35:34.115Z,16.56
2022-10-29T12:38:03.781Z,16.64
2022-10-29T12:40:34.466Z,16.69
2022-10-29T12:43:06.618Z,16.68
2022-10-29T12:46:19.161Z,16.70
2022-10-29T12:48:49.571Z,16.65
2022-10-29T12:51:58.955Z,16.70
2022-10-29T12:54:28.486Z,16.74
2022-10-29T12:56:57.558Z,16.78
2022-10-29T12:59:24.488Z,16.77
2022-10-29T13:04:39.011Z,16.96
2022-10-29T13:07:23.481Z,17.07
2022-10-29T13:10:22.573Z,17.18
2022-10-29T13:12:55.144Z,17.24
2022-10-29T13:15:24.678Z,17.28
2022-10-29T13:17:55.026Z,17.31
2022-10-29T13:20:38.511Z,17.29
2022-10-29T13:23:25.050Z,17.31
2022-10-29T13:25:56.401Z,17.24
2022-10-29T13:28:23.003Z,17.30
2022-10-29T13:30:52.695Z,17.28
2022-10-29T13:33:22.080Z,17.31
2022-10-29T13:36:17.074Z,17.39
2022-10-29T13:38:58.661Z,17.46
2022-10-29T13:41:43.463Z,17.58
2022-10-29T13:44:25.088Z,17.67
2022-10-29T13:47:02.049Z,17.71
2022-10-29T13:49:42.419Z,17.74
2022-10-29T13:52:08.986Z,17.74
2022-10-29T13:54:44.290Z,17.74
2022-10-29T13:57:17.009Z,17.73
2022-10-29T13:59:48.446Z,17.70
2022-10-29T14:02:33.658Z,17.68
2022-10-29T14:05:05.714Z,17.62
2022-10-29T14:08:02.886Z,17.56
2022-10-29T14:10:45.792Z,17.56
2022-10-29T14:13:41.147Z,17.54
2022-10-29T14:16:07.722Z,17.53
2022-10-29T14:18:38.658Z,17.59
2022-10-29T14:21:12.532Z,17.65
2022-10-29T14:23:41.071Z,17.68
2022-10-29T14:26:17.225Z,17.70
2022-10-29T14:28:43.924Z,17.70
2022-10-29T14:31:24.482Z,17.70
2022-10-29T14:33:56.885Z,17.69
2022-10-29T14:36:43.309Z,17.64
2022-10-29T14:39:21.204Z,17.64
2022-10-29T14:41:50.065Z,17.63
2022-10-29T14:44:20.655Z,17.62
2022-10-29T14:47:22.598Z,17.65
2022-10-29T14:49:51.062Z,17.65
2022-10-29T14:52:32.495Z,17.69
2022-10-29T14:55:03.069Z,17.73
2022-10-29T14:57:33.815Z,17.72
2022-10-29T15:00:25.312Z,17.72
2022-10-29T15:02:54.661Z,17.68
2022-10-29T15:05:32.180Z,17.65
2022-10-29T15:08:04.618Z,17.65
2022-10-29T15:10:31.868Z,17.63
2022-10-29T15:12:58.827Z,17.65
2022-10-29T15:15:30.042Z,17.65
2022-10-29T15:18:17.172Z,17.64
2022-10-29T15:20:47.608Z,17.59
2022-10-29T15:23:29.699Z,17.57
2022-10-29T15:26:10.062Z,17.52
2022-10-29T15:28:43.028Z,17.53
2022-10-29T15:31:30.027Z,17.55
2022-10-29T15:34:08.793Z,17.60
2022-10-29T15:36:49.617Z,17.60
2022-10-29T15:39:29.253Z,17.60
2022-10-29T15:42:00.939Z,17.55
2022-10-29T15:44:33.992Z,17.52
2022-10-29T15:47:02.789Z,17.46
2022-10-29T15:49:32.577Z,17.43
2022-10-29T15:52:01.253Z,17.44
2022-10-29T15:54:28.893Z,17.39
2022-10-29T15:56:55.771Z,17.37
2022-10-29T15:59:25.997Z,17.31
2022-10-29T16:01:52.941Z,17.21
2022-10-29T16:04:19.772Z,17.14
2022-10-29T16:06:46.441Z,17.07
2022-10-29T16:09:19.877Z,17.02
2022-10-29T16:11:47.011Z,17.04
2022-10-29T16:14:13.715Z,17.04
2022-10-29T16:16:40.326Z,16.99
2022-10-29T16:19:07.234Z,16.92
2022-10-29T16:21:34.659Z,16.94
2022-10-29T16:24:01.386Z,16.91
2022-10-29T16:26:28.720Z,16.85
2022-10-29T16:28:56.613Z,16.80
2022-10-29T16:31:26.366Z,16.75
2022-10-29T16:33:57.057Z,16.73
2022-10-29T16:36:24.050Z,16.70
2022-10-29T16:38:51.347Z,16.65
2022-10-29T16:41:19.323Z,16.61
2022-10-29T16:43:47.173Z,16.59
2022-10-29T16:46:14.967Z,16.54
2022-10-29T16:48:41.684Z,16.47
2022-10-29T16:51:08.412Z,16.43
2022-10-29T16:53:35.881Z,16.41
2022-10-29T16:56:03.670Z,16.39
2022-10-29T16:58:30.820Z,16.37
2022-10-29T17:01:08.967Z,16.34
2022-10-29T17:03:36.058Z,16.32
2022-10-29T17:06:07.860Z,16.29
2022-10-29T17:08:35.776Z,16.29
2022-10-29T17:11:05.900Z,16.28
2022-10-29T17:13:33.957Z,16.21
2022-10-29T17:16:00.554Z,16.18
2022-10-29T17:18:27.158Z,16.16
2022-10-29T17:20:58.679Z,16.15
2022-10-29T17:23:25.322Z,16.10
2022-10-29T17:25:57.153Z,16.08
2022-10-29T17:28:25.919Z,16.07
2022-10-29T17:30:52.954Z,16.10
2022-10-29T17:33:20.129Z,16.11
2022-10-29T17:35:46.970Z,16.12
2022-10-29T17:38:13.853Z,16.12
2022-10-29T17:40:43.340Z,16.11
2022-10-29T17:43:10.018Z,16.09
2022-10-29T17:45:37.168Z,16.05
2022-10-29T17:48:03.936Z,16.02
2022-10-29T17:50:30.539Z,16.02
2022-10-29T17:52:58.036Z,15.98
2022-10-29T17:55:25.439Z,15.93
2022-10-29T17:57:52.364Z,15.92
2022-10-29T18:00:19.324Z,15.88
2022-10-29T18:02:50.013Z,15.81
2022-10-29T18:05:17.946Z,15.79
2022-10-29T18:07:44.738Z,15.73
2022-10-29T18:10:11.371Z,15.72
2022-10-29T18:12:37.972Z,15.70
2022-10-29T18:15:05.457Z,15.64
2022-10-29T18:17:32.604Z,15.59
2022-10-29T18:19:59.200Z,15.51
2022-10-29T18:22:25.846Z,15.47
2022-10-29T18:24:52.503Z,15.39
2022-10-29T18:27:20.555Z,15.41
2022-10-29T18:29:47.310Z,15.37
2022-10-29T18:32:14.108Z,15.30
2022-10-29T18:34:41.649Z,15.21
2022-10-29T18:37:08.550Z,15.23
2022-10-29T18:39:35.266Z,15.16
2022-10-29T18:42:01.887Z,15.12
2022-10-29T18:44:28.524Z,15.08
2022-10-29T18:46:55.234Z,15.03
2022-10-29T18:49:22.533Z,14.96
2022-10-29T18:51:49.285Z,14.90
2022-10-29T18:54:16.449Z,14.86
2022-10-29T18:56:43.898Z,14.83
2022-10-29T18:59:12.843Z,14.70
2022-10-29T19:01:40.288Z,14.69
2022-10-29T19:04:09.321Z,14.66
2022-10-29T19:06:37.304Z,14.57
2022-10-29T19:09:07.472Z,14.57
2022-10-29T19:11:35.080Z,14.51
2022-10-29T19:14:05.170Z,14.49
2022-10-29T19:16:32.858Z,14.46
2022-10-29T19:19:08.275Z,14.43
2022-10-29T19:21:36.866Z,14.37
2022-10-29T19:24:04.888Z,14.34
2022-10-29T19:26:33.715Z,14.33
2022-10-29T19:29:02.409Z,14.25
2022-10-29T19:31:31.231Z,14.20
2022-10-29T19:34:00.327Z,14.18
2022-10-29T19:36:28.960Z,14.15
2022-10-29T19:38:56.291Z,14.14
2022-10-29T19:41:23.357Z,14.10
2022-10-29T19:43:50.200Z,14.05
2022-10-29T19:46:22.821Z,14.02
2022-10-29T19:48:50.970Z,13.96
2022-10-29T19:51:18.331Z,13.93
2022-10-29T19:53:45.728Z,13.90
2022-10-29T19:56:14.539Z,13.86
2022-10-29T19:58:41.542Z,13.84
2022-10-29T20:01:12.488Z,13.79
2022-10-29T20:03:39.228Z,13.78
2022-10-29T20:06:06.680Z,13.78
2022-10-29T20:08:33.375Z,13.77
2022-10-29T20:11:00.575Z,13.79
2022-10-29T20:13:28.082Z,13.75
2022-10-29T20:15:55.108Z,13.71
2022-10-29T20:18:21.853Z,13.71
2022-10-29T20:20:56.670Z,13.69
2022-10-29T20:23:25.717Z,13.67
2022-10-29T20:25:53.140Z,13.62
2022-10-29T20:28:19.979Z,13.60
2022-10-29T20:30:46.774Z,13.52
2022-10-29T20:33:13.362Z,13.49
2022-10-29T20:35:40.404Z,13.45
2022-10-29T20:38:07.300Z,13.41
2022-10-29T20:40:33.969Z,13.36
2022-10-29T20:43:00.605Z,13.31
2022-10-29T20:45:27.270Z,13.27
2022-10-29T20:47:53.994Z,13.28
2022-10-29T20:50:20.729Z,13.20
2022-10-29T20:52:49.041Z,13.14
2022-10-29T20:55:17.015Z,13.12
2022-10-29T20:57:43.823Z,13.11
2022-10-29T21:00:10.900Z,13.11
2022-10-29T21:02:37.622Z,13.07
2022-10-29T21:05:04.680Z,13.06
2022-10-29T21:07:31.358Z,13.06
2022-10-29T21:09:57.971Z,13.00
2022-10-29T21:12:24.660Z,13.00
2022-10-29T21:14:51.262Z,12.98
2022-10-29T21:17:17.864Z,12.95
2022-10-29T21:19:44.473Z,12.97
2022-10-29T21:22:11.064Z,12.88
2022-10-29T21:24:39.253Z,12.85
2022-10-29T21:27:09.992Z,12.82
2022-10-29T21:29:36.597Z,12.80
2022-10-29T21:32:03.991Z,12.78
2022-10-29T21:34:30.857Z,12.75
2022-10-29T21:36:58.710Z,12.72
2022-10-29T21:39:26.494Z,12.67
2022-10-29T21:41:53.290Z,12.65
2022-10-29T21:44:19.953Z,12.72
2022-10-29T21:46:46.577Z,12.68
2022-10-29T21:49:13.173Z,12.63
2022-10-29T21:51:40.489Z,12.60
2022-10-29T21:54:07.769Z,12.56
2022-10-29T21:56:34.407Z,12.55
2022-10-29T21:59:01.112Z,12.53
2022-10-29T22:01:27.817Z,12.51
2022-10-29T22:03:54.560Z,12.46
2022-10-29T22:06:24.077Z,12.44
2022-10-29T22:08:56.654Z,12.42
2022-10-29T22:11:24.860Z,12.41
2022-10-29T22:13:52.099Z,12.42
2022-10-29T22:16:19.110Z,12.38
2022-10-29T22:18:46.368Z,12.35
2022-10-29T22:21:15.577Z,12.38
2022-10-29T22:23:48.623Z,12.40
2022-10-29T22:26:17.645Z,12.37
2022-10-29T22:28:44.646Z,12.37
2022-10-29T22:31:11.563Z,12.35
2022-10-29T22:33:38.202Z,12.31
2022-10-29T22:36:15.679Z,12.25
2022-10-29T22:38:42.675Z,12.25
2022-10-29T22:41:18.090Z,12.23
2022-10-29T22:43:45.084Z,12.24
2022-10-29T22:46:16.961Z,12.22
2022-10-29T22:48:43.721Z,12.25
2022-10-29T22:51:23.817Z,12.23
2022-10-29T22:53:51.890Z,12.21
2022-10-29T22:56:26.617Z,12.25
2022-10-29T22:58:53.793Z,12.18
2022-10-29T23:01:23.111Z,12.19
2022-10-29T23:03:50.297Z,12.17
2022-10-29T23:06:20.049Z,12.12
2022-10-29T23:08:47.502Z,12.11
2022-10-29T23:11:19.341Z,12.12
2022-10-29T23:13:54.038Z,12.08
2022-10-29T23:16:23.105Z,12.06
2022-10-29T23:18:51.190Z,12.09
2022-10-29T23:21:18.362Z,12.06
2022-10-29T23:23:46.122Z,12.04
2022-10-29T23:26:15.333Z,11.95
2022-10-29T23:28:42.690Z,11.97
2022-10-29T23:31:15.255Z,11.99
2022-10-29T23:33:46.721Z,11.97
2022-10-29T23:36:15.055Z,11.98
2022-10-29T23:38:42.055Z,11.97
2022-10-29T23:41:09.107Z,11.99
2022-10-29T23:43:35.686Z,11.99
2022-10-29T23:46:02.456Z,11.93
2022-10-29T23:48:29.208Z,11.95
2022-10-29T23:50:56.655Z,11.92
2022-10-29T23:53:24.559Z,11.88
2022-10-29T23:55:51.631Z,11.84
2022-10-29T23:58:18.319Z,11.82
